This is the latest recevied weather packets stored in our database for station/object HB0RER-13. If no packets are shown the sender has not sent any weather packets the latest 10 day(s).
| Time | Temp. | Humidity | Pressure | Rain* | Wind** | Luminosity | Snow |
|---|---|---|---|---|---|---|---|
| 1777442437 | 12.22° C | 91% | 1018.2 hPa | 0.25 mm | - | - | - |
| 1777441836 | 12.22° C | 91% | 1018.2 hPa | 0.51 mm | - | - | - |
| 1777438845 | 12.22° C | 91% | 1018 hPa | 1.78 mm | - | - | - |
| 1777435213 | 12.22° C | 91% | 1017.5 hPa | 0.51 mm | - | - | - |
| 1777433427 | 12.22° C | 90% | 1017.3 hPa | 0.76 mm | - | - | - |
| 1777429795 | 12.22° C | 87% | 1016.8 hPa | 0 mm | - | - | - |
| 1777429193 | 12.22° C | 87% | 1016.8 hPa | 0 mm | - | - | - |
| 1777423795 | 12.78° C | 86% | 1017 hPa | 0 mm | - | - | - |
| 1777418377 | 12.78° C | 84% | 1017.4 hPa | 0 mm | - | - | - |
| 1777417756 | 12.78° C | 83% | 1017.6 hPa | 0 mm | - | - | - |
| 1777415970 | 13.33° C | 82% | 1017.7 hPa | 0 mm | - | - | - |
| 1777409347 | 13.33° C | 79% | 1018.2 hPa | 0 mm | - | - | - |
| 1777408726 | 13.89° C | 78% | 1018.2 hPa | 0 mm | - | - | - |
| 1777408124 | 13.89° C | 78% | 1018.2 hPa | 0 mm | - | - | - |
| 1777406317 | 13.89° C | 77% | 1018 hPa | 0 mm | - | - | - |
| 1777404512 | 14.44° C | 74% | 1017.7 hPa | 0 mm | - | - | - |
| 1777402103 | 15° C | 69% | 1017.5 hPa | 0 mm | - | - | - |
| 1777399695 | 16.11° C | 58% | 1017 hPa | 0 mm | - | - | - |
| 1777396685 | 18.89° C | 40% | 1015.7 hPa | 0 mm | - | - | - |
| 1777395482 | 19.44° C | 39% | 1015.2 hPa | 0 mm | - | - | - |
| 1777391870 | 20° C | 43% | 1014.4 hPa | 0 mm | - | - | - |
| 1777390665 | 20.56° C | 42% | 1014.3 hPa | 0 mm | - | - | - |
| 1777390063 | 20.56° C | 40% | 1014.3 hPa | 0 mm | - | - | - |
| 1777389462 | 20.56° C | 38% | 1014.3 hPa | 0 mm | - | - | - |
| 1777387676 | 21.11° C | 36% | 1014.3 hPa | 0 mm | - | - | - |
* Rain latest hour (hover to see other rain measurements)
** Current wind speed in m/s (hover to see current wind gust speed)